Time;durP1;ratioP1;P1;durP2;ratioP2;P2;SDS_P1;SDS_P2;PMS_P1;PMS_P2;Temp;Humidity;BMP_temperature;BMP_pressure;BME280_temperature;BME280_humidity;BME280_pressure;Samples;Min_cycle;Max_cycle;Signal;HPM_P1;HPM_P2
2023/07/31 00:01:44;;;;;;;6.40;3.58;;;;;;;;;;5010459;28;20026;-83
2023/07/31 00:04:35;;;;;;;6.93;3.97;;;;;;;;;;5009298;28;20092;-83
2023/07/31 00:07:00;;;;;;;6.68;3.72;;;;;;;;;;5010565;28;20440;-82
2023/07/31 00:09:25;;;;;;;7.72;4.20;;;;;;;;;;5025550;28;20050;-82
2023/07/31 00:11:51;;;;;;;7.38;4.18;;;;;;;;;;5010264;28;20416;-82
2023/07/31 00:14:16;;;;;;;7.47;4.35;;;;;;;;;;5010456;28;20528;-83
2023/07/31 00:16:42;;;;;;;9.77;4.53;;;;;;;;;;5010583;28;20137;-83
2023/07/31 00:19:07;;;;;;;6.95;3.95;;;;;;;;;;5010311;28;20472;-82
2023/07/31 00:21:33;;;;;;;8.32;4.50;;;;;;;;;;5007423;28;20041;-82
2023/07/31 00:23:58;;;;;;;8.80;4.10;;;;;;;;;;5010440;28;20050;-83
2023/07/31 00:26:24;;;;;;;9.10;4.55;;;;;;;;;;5009192;28;20034;-82
2023/07/31 00:28:49;;;;;;;9.30;4.53;;;;;;;;;;5011198;28;20022;-82
2023/07/31 00:31:14;;;;;;;7.95;4.82;;;;;;;;;;5009390;28;20359;-82
2023/07/31 00:33:40;;;;;;;6.45;4.85;;;;;;;;;;5005378;28;20017;-82
2023/07/31 00:36:05;;;;;;;7.78;4.90;;;;;;;;;;5013890;28;20045;-83
2023/07/31 00:38:31;;;;;;;6.05;4.70;;;;;;;;;;5012882;28;20032;-82
2023/07/31 00:40:58;;;;;;;7.35;4.40;;;;;;;;;;5010417;28;20041;-82
2023/07/31 00:43:25;;;;;;;10.23;4.97;;;;;;;;;;5011629;28;20482;-82
2023/07/31 00:45:50;;;;;;;11.13;4.78;;;;;;;;;;5011066;28;20034;-82
2023/07/31 00:48:16;;;;;;;6.18;4.32;;;;;;;;;;5013825;28;20036;-83
2023/07/31 00:50:41;;;;;;;6.22;4.47;;;;;;;;;;5002257;28;20026;-82
2023/07/31 00:53:07;;;;;;;7.03;4.68;;;;;;;;;;5005657;28;20046;-82
2023/07/31 00:55:32;;;;;;;6.63;4.70;;;;;;;;;;5025659;28;20041;-82
2023/07/31 00:57:59;;;;;;;8.38;4.18;;;;;;;;;;5013304;28;20018;-82
2023/07/31 01:00:24;;;;;;;6.93;4.50;;;;;;;;;;5017617;28;20038;-82
2023/07/31 01:02:50;;;;;;;9.95;4.53;;;;;;;;;;5010886;28;20022;-82
2023/07/31 01:05:15;;;;;;;8.55;5.00;;;;;;;;;;5027795;28;20845;-82
2023/07/31 01:07:59;;;;;;;7.40;5.10;;;;;;;;;;5011650;28;20026;-82
2023/07/31 01:10:30;;;;;;;6.30;5.22;;;;;;;;;;5002858;28;20040;-82
2023/07/31 01:12:56;;;;;;;6.65;4.75;;;;;;;;;;4992855;28;20529;-81
2023/07/31 01:15:21;;;;;;;8.23;5.20;;;;;;;;;;5019585;28;20038;-82
2023/07/31 01:17:47;;;;;;;8.88;5.20;;;;;;;;;;5008818;28;20070;-82
2023/07/31 01:20:22;;;;;;;8.18;5.10;;;;;;;;;;5011853;28;20478;-82
2023/07/31 01:23:07;;;;;;;8.50;5.22;;;;;;;;;;5023929;28;20475;-81
2023/07/31 01:25:51;;;;;;;7.82;4.20;;;;;;;;;;5012495;28;20033;-81
2023/07/31 01:28:20;;;;;;;8.85;4.25;;;;;;;;;;5012873;28;20071;-82
2023/07/31 01:30:46;;;;;;;8.30;4.80;;;;;;;;;;5011579;28;20017;-82
2023/07/31 01:33:11;;;;;;;7.38;4.80;;;;;;;;;;5027621;28;20049;-82
2023/07/31 01:35:37;;;;;;;8.95;4.93;;;;;;;;;;5011120;28;20512;-82
2023/07/31 01:38:03;;;;;;;7.07;4.20;;;;;;;;;;5010249;28;20036;-82
2023/07/31 01:40:28;;;;;;;6.78;4.82;;;;;;;;;;5009930;28;20022;-82
2023/07/31 01:42:54;;;;;;;8.73;4.60;;;;;;;;;;5011428;28;20034;-82
2023/07/31 01:45:19;;;;;;;5.97;4.03;;;;;;;;;;5010525;28;20484;-81
2023/07/31 01:47:45;;;;;;;11.15;4.80;;;;;;;;;;5012679;28;20110;-82
2023/07/31 01:50:11;;;;;;;9.68;4.38;;;;;;;;;;4994852;28;20369;-82
2023/07/31 01:52:36;;;;;;;7.13;4.78;;;;;;;;;;5011315;28;20042;-81
2023/07/31 01:55:02;;;;;;;8.70;5.20;;;;;;;;;;4994127;28;20473;-82
2023/07/31 01:57:27;;;;;;;9.00;4.60;;;;;;;;;;5012409;28;20096;-82
2023/07/31 01:59:53;;;;;;;6.63;4.50;;;;;;;;;;5012180;28;20032;-82
2023/07/31 02:02:19;;;;;;;6.95;4.18;;;;;;;;;;5024293;28;20103;-82
2023/07/31 02:04:44;;;;;;;8.93;4.80;;;;;;;;;;5010621;28;20535;-82
2023/07/31 02:07:10;;;;;;;9.45;4.35;;;;;;;;;;5011198;28;20084;-82
2023/07/31 02:09:35;;;;;;;9.20;5.07;;;;;;;;;;4994506;28;20485;-82
2023/07/31 02:12:01;;;;;;;7.45;4.30;;;;;;;;;;5010748;28;20509;-84
2023/07/31 02:14:26;;;;;;;7.28;4.22;;;;;;;;;;5027073;28;20069;-81
2023/07/31 02:16:52;;;;;;;9.68;4.68;;;;;;;;;;5012039;28;20033;-81
2023/07/31 02:19:17;;;;;;;10.93;4.43;;;;;;;;;;5007126;28;20116;-81
2023/07/31 02:21:43;;;;;;;10.40;4.78;;;;;;;;;;4991052;28;20045;-82
2023/07/31 02:24:08;;;;;;;9.23;4.43;;;;;;;;;;5007998;28;20025;-81
2023/07/31 02:26:34;;;;;;;8.00;4.78;;;;;;;;;;5010671;28;20062;-81
2023/07/31 02:28:59;;;;;;;5.70;3.50;;;;;;;;;;5011804;28;20534;-82
2023/07/31 02:31:25;;;;;;;8.65;4.40;;;;;;;;;;5027143;28;20092;-82
2023/07/31 02:33:50;;;;;;;7.25;4.78;;;;;;;;;;5011811;28;20362;-82
2023/07/31 02:36:16;;;;;;;6.75;4.70;;;;;;;;;;5005819;28;20069;-81
2023/07/31 02:38:41;;;;;;;9.32;5.07;;;;;;;;;;5025597;28;20489;-82
2023/07/31 02:41:07;;;;;;;8.77;4.50;;;;;;;;;;5009669;28;20045;-82
2023/07/31 02:43:32;;;;;;;9.55;4.90;;;;;;;;;;5009759;28;20113;-81
2023/07/31 02:45:59;;;;;;;8.65;4.72;;;;;;;;;;5011627;28;20034;-81
2023/07/31 02:48:24;;;;;;;12.02;4.28;;;;;;;;;;5009977;28;20030;-81
2023/07/31 02:50:50;;;;;;;8.43;4.78;;;;;;;;;;5010663;28;20041;-81
2023/07/31 02:53:15;;;;;;;9.60;4.60;;;;;;;;;;5011440;28;20524;-82
2023/07/31 02:55:41;;;;;;;9.13;4.82;;;;;;;;;;5010079;28;20040;-81
2023/07/31 02:58:06;;;;;;;12.10;4.80;;;;;;;;;;4993646;28;20501;-82
2023/07/31 03:00:32;;;;;;;13.15;4.20;;;;;;;;;;5026531;28;20033;-82
2023/07/31 03:02:57;;;;;;;7.75;4.30;;;;;;;;;;5009175;28;20058;-82
2023/07/31 03:05:23;;;;;;;8.15;4.20;;;;;;;;;;5004754;28;20033;-82
2023/07/31 03:07:48;;;;;;;6.30;4.20;;;;;;;;;;5010121;28;20113;-82
2023/07/31 03:10:14;;;;;;;9.88;4.20;;;;;;;;;;5011258;28;20376;-82
2023/07/31 03:12:40;;;;;;;8.90;4.30;;;;;;;;;;5007905;28;20082;-81
2023/07/31 03:15:05;;;;;;;7.82;3.95;;;;;;;;;;5026352;28;20033;-83
2023/07/31 03:17:31;;;;;;;8.25;4.05;;;;;;;;;;5009807;28;20124;-82
2023/07/31 03:19:56;;;;;;;7.40;4.15;;;;;;;;;;4993194;28;20037;-82
2023/07/31 03:22:22;;;;;;;5.38;3.55;;;;;;;;;;5008804;28;20108;-82
2023/07/31 03:24:47;;;;;;;5.78;3.72;;;;;;;;;;5007111;28;20045;-82
2023/07/31 03:27:12;;;;;;;4.60;3.55;;;;;;;;;;5010701;28;20030;-82
2023/07/31 03:29:38;;;;;;;5.45;3.60;;;;;;;;;;5011054;28;20053;-82
2023/07/31 03:32:04;;;;;;;8.15;4.32;;;;;;;;;;5010665;28;20025;-82
2023/07/31 03:34:54;;;;;;;5.65;3.83;;;;;;;;;;5011589;28;20049;-82
2023/07/31 03:37:20;;;;;;;8.57;4.20;;;;;;;;;;4988650;28;20042;-82
2023/07/31 03:39:45;;;;;;;5.38;3.60;;;;;;;;;;5000817;28;20653;-82
2023/07/31 03:42:11;;;;;;;8.35;3.80;;;;;;;;;;5010890;28;20074;-82
2023/07/31 03:44:36;;;;;;;8.05;3.88;;;;;;;;;;5009557;28;20511;-81
2023/07/31 03:47:04;;;;;;;5.40;3.85;;;;;;;;;;5010370;28;20400;-82
2023/07/31 03:49:29;;;;;;;5.38;3.38;;;;;;;;;;5010586;28;20048;-81
2023/07/31 03:51:55;;;;;;;6.57;3.30;;;;;;;;;;5009120;28;20056;-82
2023/07/31 03:54:20;;;;;;;6.65;3.88;;;;;;;;;;5009348;28;20053;-82
2023/07/31 03:56:46;;;;;;;6.75;3.70;;;;;;;;;;5010467;28;20029;-82
2023/07/31 03:59:11;;;;;;;7.30;3.78;;;;;;;;;;5007952;28;20448;-81
2023/07/31 04:01:37;;;;;;;6.80;3.53;;;;;;;;;;5004661;28;20466;-82
2023/07/31 04:04:02;;;;;;;6.30;3.22;;;;;;;;;;5013637;28;20079;-81
2023/07/31 04:06:28;;;;;;;9.63;3.53;;;;;;;;;;5014423;28;20030;-82
2023/07/31 04:08:53;;;;;;;5.97;3.42;;;;;;;;;;5006394;28;20056;-82
2023/07/31 04:11:19;;;;;;;4.45;2.85;;;;;;;;;;5013075;28;20125;-82
2023/07/31 04:13:44;;;;;;;5.55;3.10;;;;;;;;;;5012642;28;20196;-81
2023/07/31 04:16:10;;;;;;;4.70;3.20;;;;;;;;;;5014447;28;20033;-81
2023/07/31 04:18:35;;;;;;;7.25;3.20;;;;;;;;;;5013150;28;20026;-81
2023/07/31 04:21:03;;;;;;;5.78;2.83;;;;;;;;;;5014334;28;20045;-82
2023/07/31 04:23:29;;;;;;;8.40;3.22;;;;;;;;;;5013926;28;20030;-82
2023/07/31 04:25:54;;;;;;;6.78;3.00;;;;;;;;;;5013172;28;20049;-81
2023/07/31 04:28:20;;;;;;;4.15;2.85;;;;;;;;;;5012493;28;20026;-82
2023/07/31 04:30:45;;;;;;;7.57;2.95;;;;;;;;;;5010543;28;20065;-82
2023/07/31 04:33:11;;;;;;;5.65;2.95;;;;;;;;;;5013136;28;20401;-82
2023/07/31 04:35:36;;;;;;;6.63;3.15;;;;;;;;;;5006205;28;20200;-82
2023/07/31 04:38:02;;;;;;;4.82;2.85;;;;;;;;;;5012392;28;20045;-82
2023/07/31 04:40:27;;;;;;;4.38;2.85;;;;;;;;;;5013517;28;20508;-82
2023/07/31 04:42:53;;;;;;;7.50;3.70;;;;;;;;;;5013746;28;20060;-82
2023/07/31 04:45:18;;;;;;;6.07;2.95;;;;;;;;;;4995879;28;20125;-82
2023/07/31 04:47:43;;;;;;;6.38;2.95;;;;;;;;;;5012345;28;20026;-82
2023/07/31 04:50:09;;;;;;;5.18;2.80;;;;;;;;;;5013133;28;20029;-82
2023/07/31 04:52:35;;;;;;;5.68;3.03;;;;;;;;;;5012434;28;20122;-83
2023/07/31 04:55:00;;;;;;;5.90;3.10;;;;;;;;;;5012641;28;20448;-82
2023/07/31 04:57:26;;;;;;;6.50;2.92;;;;;;;;;;4996242;28;20064;-84
2023/07/31 04:59:51;;;;;;;8.38;3.20;;;;;;;;;;5011676;28;20037;-81
2023/07/31 05:02:17;;;;;;;5.63;3.08;;;;;;;;;;5013166;28;20048;-82
2023/07/31 05:04:42;;;;;;;6.97;3.28;;;;;;;;;;5012968;28;20033;-82
2023/07/31 05:07:08;;;;;;;6.45;3.25;;;;;;;;;;5012426;28;20030;-83
2023/07/31 05:09:33;;;;;;;9.75;3.88;;;;;;;;;;5013324;28;20041;-82
2023/07/31 05:11:58;;;;;;;7.30;3.30;;;;;;;;;;5012901;28;20096;-84
2023/07/31 05:14:25;;;;;;;7.53;3.28;;;;;;;;;;5027254;28;20049;-84
2023/07/31 05:16:50;;;;;;;7.88;3.08;;;;;;;;;;5021651;28;20124;-83
2023/07/31 05:19:16;;;;;;;6.43;2.88;;;;;;;;;;5012624;28;20121;-83
2023/07/31 05:21:41;;;;;;;5.80;2.70;;;;;;;;;;5011649;28;20034;-83
2023/07/31 05:24:07;;;;;;;4.30;2.65;;;;;;;;;;5011243;28;20042;-83
2023/07/31 05:26:32;;;;;;;4.47;2.58;;;;;;;;;;5010604;28;20112;-83
2023/07/31 05:28:58;;;;;;;9.65;3.40;;;;;;;;;;5012346;28;20061;-83
2023/07/31 05:31:24;;;;;;;7.13;2.88;;;;;;;;;;5012642;28;20022;-83
2023/07/31 05:33:50;;;;;;;4.85;2.58;;;;;;;;;;5021956;28;20409;-84
2023/07/31 05:36:15;;;;;;;5.43;2.97;;;;;;;;;;5007065;28;20038;-84
2023/07/31 05:38:42;;;;;;;7.95;2.75;;;;;;;;;;5011647;28;20046;-83
2023/07/31 05:41:07;;;;;;;12.82;3.22;;;;;;;;;;5012566;28;20026;-83
2023/07/31 05:43:32;;;;;;;6.80;3.03;;;;;;;;;;5010714;28;20121;-83
2023/07/31 05:45:58;;;;;;;6.57;3.13;;;;;;;;;;5011083;28;20057;-84
2023/07/31 05:48:23;;;;;;;5.60;3.05;;;;;;;;;;5010637;28;20064;-83
2023/07/31 05:50:49;;;;;;;5.57;2.20;;;;;;;;;;5012109;28;20025;-82
2023/07/31 05:53:15;;;;;;;5.15;2.70;;;;;;;;;;5011739;28;20049;-84
2023/07/31 05:55:40;;;;;;;5.38;2.70;;;;;;;;;;5010843;28;20061;-83
2023/07/31 05:58:06;;;;;;;6.10;2.47;;;;;;;;;;4993992;28;20034;-84
2023/07/31 06:00:31;;;;;;;4.60;2.47;;;;;;;;;;5012165;28;20029;-82
2023/07/31 06:02:57;;;;;;;4.80;2.40;;;;;;;;;;5010578;28;20125;-83
2023/07/31 06:05:22;;;;;;;5.13;2.40;;;;;;;;;;5010602;28;20034;-83
2023/07/31 06:07:47;;;;;;;3.28;2.10;;;;;;;;;;5010218;28;20026;-82
2023/07/31 06:10:13;;;;;;;3.78;2.40;;;;;;;;;;4994346;28;20439;-83
2023/07/31 06:12:39;;;;;;;4.55;2.40;;;;;;;;;;5009915;28;20046;-83
2023/07/31 06:15:04;;;;;;;5.78;2.33;;;;;;;;;;5011700;28;20432;-82
2023/07/31 06:17:30;;;;;;;5.82;2.05;;;;;;;;;;5011437;28;20164;-83
2023/07/31 06:19:55;;;;;;;3.28;2.50;;;;;;;;;;5010892;28;20025;-83
2023/07/31 06:22:21;;;;;;;5.75;2.42;;;;;;;;;;5012025;28;20038;-83
2023/07/31 06:24:46;;;;;;;4.13;2.17;;;;;;;;;;5012045;28;20042;-83
2023/07/31 06:27:12;;;;;;;6.47;2.40;;;;;;;;;;4993489;28;20108;-83
2023/07/31 06:29:37;;;;;;;5.15;2.33;;;;;;;;;;5011527;28;20022;-83
2023/07/31 06:32:03;;;;;;;6.30;2.50;;;;;;;;;;5009409;28;20037;-83
2023/07/31 06:34:28;;;;;;;6.90;2.83;;;;;;;;;;5011861;28;20040;-83
2023/07/31 06:36:55;;;;;;;3.65;2.25;;;;;;;;;;5010497;28;20129;-83
2023/07/31 06:39:20;;;;;;;6.15;2.38;;;;;;;;;;5011439;28;20136;-83
2023/07/31 06:41:46;;;;;;;4.88;2.20;;;;;;;;;;5011076;28;20548;-83
2023/07/31 06:44:11;;;;;;;5.50;1.95;;;;;;;;;;5019284;28;20477;-83
2023/07/31 06:46:37;;;;;;;3.47;2.00;;;;;;;;;;5005992;28;20084;-82
2023/07/31 06:49:03;;;;;;;3.67;2.15;;;;;;;;;;5019062;28;20113;-82
2023/07/31 06:51:28;;;;;;;4.95;2.40;;;;;;;;;;4996343;28;20117;-82
2023/07/31 06:53:54;;;;;;;4.47;2.40;;;;;;;;;;5009896;28;20091;-82
2023/07/31 06:56:20;;;;;;;9.50;2.60;;;;;;;;;;5010708;28;20068;-83
2023/07/31 06:58:46;;;;;;;6.53;2.90;;;;;;;;;;5011393;28;20092;-83
2023/07/31 07:01:11;;;;;;;5.18;2.00;;;;;;;;;;5009100;28;20041;-83
2023/07/31 07:03:36;;;;;;;4.32;2.08;;;;;;;;;;5011155;28;20606;-83
2023/07/31 07:06:02;;;;;;;4.95;2.10;;;;;;;;;;5010502;28;20034;-83
2023/07/31 07:08:27;;;;;;;3.70;1.92;;;;;;;;;;5009587;28;20073;-85
2023/07/31 07:10:53;;;;;;;5.32;2.05;;;;;;;;;;5009073;28;20491;-85
2023/07/31 07:13:19;;;;;;;4.43;2.08;;;;;;;;;;5010824;28;20394;-83
2023/07/31 07:15:48;;;;;;;5.35;2.00;;;;;;;;;;5008991;28;20527;-82
2023/07/31 07:18:14;;;;;;;3.03;1.80;;;;;;;;;;5013733;28;20108;-83
2023/07/31 07:20:39;;;;;;;3.10;1.80;;;;;;;;;;5010274;28;20133;-84
2023/07/31 07:23:05;;;;;;;6.95;2.40;;;;;;;;;;5010752;28;20025;-84
2023/07/31 07:25:30;;;;;;;4.38;1.80;;;;;;;;;;5008983;28;20076;-84
2023/07/31 07:27:56;;;;;;;3.17;1.88;;;;;;;;;;5010644;28;20053;-83
2023/07/31 07:30:21;;;;;;;3.60;2.10;;;;;;;;;;5025494;28;20038;-83
2023/07/31 07:32:47;;;;;;;4.80;1.95;;;;;;;;;;5009395;28;20018;-83
2023/07/31 07:35:12;;;;;;;3.75;1.80;;;;;;;;;;4989741;28;20136;-83
2023/07/31 07:37:38;;;;;;;3.78;1.83;;;;;;;;;;5010106;28;20030;-83
2023/07/31 07:40:03;;;;;;;5.82;1.80;;;;;;;;;;5025696;28;20564;-83
2023/07/31 07:42:29;;;;;;;2.88;2.00;;;;;;;;;;5010326;28;20029;-84
2023/07/31 07:44:54;;;;;;;3.42;1.70;;;;;;;;;;5008840;28;20440;-84
2023/07/31 07:47:20;;;;;;;2.22;1.73;;;;;;;;;;5010041;28;20029;-83
2023/07/31 07:49:45;;;;;;;2.70;1.60;;;;;;;;;;5010175;28;20044;-83
2023/07/31 07:52:11;;;;;;;3.67;1.80;;;;;;;;;;5008786;28;20037;-83
2023/07/31 07:54:36;;;;;;;2.95;1.60;;;;;;;;;;5009017;28;20030;-84
2023/07/31 07:57:01;;;;;;;3.30;1.80;;;;;;;;;;5010002;28;20030;-84
2023/07/31 07:59:27;;;;;;;3.63;1.98;;;;;;;;;;5009035;28;20137;-84
2023/07/31 08:01:54;;;;;;;5.70;1.60;;;;;;;;;;5009133;28;20038;-84
2023/07/31 08:04:19;;;;;;;2.20;1.33;;;;;;;;;;5010094;28;20030;-84
2023/07/31 08:06:44;;;;;;;3.13;1.90;;;;;;;;;;5010174;28;20501;-84
2023/07/31 08:09:10;;;;;;;4.13;2.13;;;;;;;;;;5003675;28;20030;-84
2023/07/31 08:11:36;;;;;;;4.00;1.70;;;;;;;;;;5007973;28;20042;-82
2023/07/31 08:14:01;;;;;;;4.80;2.15;;;;;;;;;;5010852;28;20030;-82
2023/07/31 08:16:26;;;;;;;5.07;1.90;;;;;;;;;;5025459;28;20041;-84
2023/07/31 08:18:52;;;;;;;3.25;1.80;;;;;;;;;;5008830;28;20025;-85
2023/07/31 08:21:17;;;;;;;3.90;1.58;;;;;;;;;;5010097;28;20076;-85
2023/07/31 08:23:43;;;;;;;3.05;1.90;;;;;;;;;;5009909;28;20512;-84
2023/07/31 08:26:14;;;;;;;2.40;1.77;;;;;;;;;;5009073;28;20408;-83
2023/07/31 08:28:40;;;;;;;4.68;2.38;;;;;;;;;;5009664;28;20037;-84
2023/07/31 08:31:05;;;;;;;2.60;1.63;;;;;;;;;;5010062;28;20022;-83
2023/07/31 08:33:31;;;;;;;2.90;1.77;;;;;;;;;;5008722;28;20029;-83
2023/07/31 08:35:56;;;;;;;7.03;1.77;;;;;;;;;;5010046;28;20034;-83
2023/07/31 08:38:25;;;;;;;2.95;1.42;;;;;;;;;;5007800;28;20030;-83
2023/07/31 08:40:50;;;;;;;3.38;1.65;;;;;;;;;;5007575;28;20018;-84
2023/07/31 08:43:16;;;;;;;3.38;1.60;;;;;;;;;;5009578;28;20037;-84
2023/07/31 08:45:41;;;;;;;4.85;3.25;;;;;;;;;;5008735;28;20407;-84
2023/07/31 08:48:07;;;;;;;2.88;1.90;;;;;;;;;;4988890;28;20058;-83
2023/07/31 08:50:32;;;;;;;3.03;1.60;;;;;;;;;;5010988;28;20026;-83
2023/07/31 08:52:58;;;;;;;5.18;1.83;;;;;;;;;;5028703;28;20045;-83
2023/07/31 08:55:24;;;;;;;2.63;1.58;;;;;;;;;;5011872;28;20092;-85
2023/07/31 08:57:50;;;;;;;3.55;1.50;;;;;;;;;;5013523;28;20453;-84
2023/07/31 09:00:16;;;;;;;2.85;1.48;;;;;;;;;;5028572;28;20026;-85
2023/07/31 09:03:02;;;;;;;2.83;1.33;;;;;;;;;;5028391;28;20091;-85
2023/07/31 09:05:28;;;;;;;4.88;2.33;;;;;;;;;;5012111;28;20061;-84
2023/07/31 09:07:53;;;;;;;3.90;1.70;;;;;;;;;;5011468;28;20034;-84
2023/07/31 09:10:19;;;;;;;4.43;1.95;;;;;;;;;;5011686;28;20120;-84
2023/07/31 09:12:44;;;;;;;3.38;1.63;;;;;;;;;;5012079;28;20212;-84
2023/07/31 09:15:10;;;;;;;3.70;1.80;;;;;;;;;;5027872;28;20037;-84
2023/07/31 09:17:36;;;;;;;3.60;1.75;;;;;;;;;;5028129;28;20125;-83
2023/07/31 09:20:17;;;;;;;3.55;2.00;;;;;;;;;;5028189;28;20172;-83
2023/07/31 09:22:43;;;;;;;3.22;1.80;;;;;;;;;;4991863;28;20030;-85
2023/07/31 09:25:21;;;;;;;3.30;1.63;;;;;;;;;;5010886;28;20393;-84
2023/07/31 09:27:53;;;;;;;3.67;1.80;;;;;;;;;;5010162;28;20021;-84
2023/07/31 09:30:19;;;;;;;3.70;1.60;;;;;;;;;;5028098;28;20368;-83
2023/07/31 09:32:45;;;;;;;3.42;1.65;;;;;;;;;;5012735;28;20087;-85
2023/07/31 09:35:20;;;;;;;2.90;1.70;;;;;;;;;;5012975;28;20052;-84
2023/07/31 09:37:52;;;;;;;5.20;1.83;;;;;;;;;;5021753;28;20049;-84
2023/07/31 09:40:44;;;;;;;4.35;1.75;;;;;;;;;;5006912;28;20038;-85
2023/07/31 09:43:10;;;;;;;3.55;1.80;;;;;;;;;;5011292;28;20568;-83
2023/07/31 09:45:37;;;;;;;3.08;1.70;;;;;;;;;;5012089;28;20370;-84
2023/07/31 09:48:02;;;;;;;5.65;1.90;;;;;;;;;;5011598;28;20034;-84
2023/07/31 09:50:28;;;;;;;4.28;2.30;;;;;;;;;;5027933;28;20025;-82
2023/07/31 09:52:53;;;;;;;5.47;2.03;;;;;;;;;;5027638;28;20087;-84
2023/07/31 09:55:19;;;;;;;6.32;2.30;;;;;;;;;;5011714;28;20112;-84
2023/07/31 09:57:48;;;;;;;5.47;2.20;;;;;;;;;;5027403;28;20037;-84
2023/07/31 10:00:15;;;;;;;5.35;1.80;;;;;;;;;;5011307;28;20439;-83
2023/07/31 10:02:40;;;;;;;3.35;1.90;;;;;;;;;;5012255;28;20042;-83
2023/07/31 10:05:06;;;;;;;4.38;1.80;;;;;;;;;;5026868;28;20022;-83
2023/07/31 10:07:33;;;;;;;4.72;2.20;;;;;;;;;;5026848;28;20025;-83
2023/07/31 10:09:59;;;;;;;4.45;1.75;;;;;;;;;;5025841;28;20041;-84
2023/07/31 10:12:25;;;;;;;2.60;1.80;;;;;;;;;;5010327;28;20453;-82
2023/07/31 10:14:50;;;;;;;3.70;1.75;;;;;;;;;;5011701;28;20095;-84
2023/07/31 10:17:16;;;;;;;3.22;1.92;;;;;;;;;;5009623;28;20033;-84
2023/07/31 10:19:41;;;;;;;5.07;1.88;;;;;;;;;;4993913;28;20025;-83
2023/07/31 10:22:07;;;;;;;5.35;1.70;;;;;;;;;;4995198;28;20046;-85
2023/07/31 10:24:32;;;;;;;2.47;1.58;;;;;;;;;;5010632;28;20029;-85
2023/07/31 10:26:58;;;;;;;3.05;1.70;;;;;;;;;;5010360;28;20061;-85
2023/07/31 10:29:24;;;;;;;4.57;1.67;;;;;;;;;;4993731;28;20025;-83
2023/07/31 10:31:49;;;;;;;2.97;2.00;;;;;;;;;;4994211;28;20452;-84
2023/07/31 10:34:15;;;;;;;4.18;1.80;;;;;;;;;;5010011;28;20041;-84
2023/07/31 10:36:40;;;;;;;4.47;1.92;;;;;;;;;;5011643;28;20034;-85
2023/07/31 10:39:05;;;;;;;5.35;2.05;;;;;;;;;;5010345;28;20105;-82
2023/07/31 10:41:31;;;;;;;4.65;1.88;;;;;;;;;;5010295;28;20049;-84
2023/07/31 10:43:57;;;;;;;5.80;1.70;;;;;;;;;;5009851;28;20105;-82
2023/07/31 10:46:23;;;;;;;2.78;1.40;;;;;;;;;;5010264;28;20046;-84
2023/07/31 10:48:49;;;;;;;5.60;1.70;;;;;;;;;;5010952;28;20105;-83
2023/07/31 10:51:16;;;;;;;4.63;1.95;;;;;;;;;;4993460;28;20453;-84
2023/07/31 10:53:41;;;;;;;3.42;1.65;;;;;;;;;;5008593;28;20044;-84
2023/07/31 10:56:07;;;;;;;2.92;1.90;;;;;;;;;;5011295;28;20034;-84
2023/07/31 10:58:33;;;;;;;4.10;2.00;;;;;;;;;;5009791;28;20014;-85
2023/07/31 11:00:59;;;;;;;2.40;1.55;;;;;;;;;;5010339;28;20034;-85
2023/07/31 11:03:25;;;;;;;3.50;1.80;;;;;;;;;;5011441;28;20566;-84
2023/07/31 11:06:02;;;;;;;4.28;1.95;;;;;;;;;;5010363;28;20857;-84
2023/07/31 11:08:28;;;;;;;5.70;2.03;;;;;;;;;;5007485;28;20570;-84
2023/07/31 11:11:03;;;;;;;4.03;2.03;;;;;;;;;;5009549;28;20535;-85
2023/07/31 11:13:32;;;;;;;3.17;1.80;;;;;;;;;;5009718;28;20057;-84
2023/07/31 11:15:58;;;;;;;2.28;1.60;;;;;;;;;;4992376;28;20413;-84
2023/07/31 11:18:24;;;;;;;5.45;1.83;;;;;;;;;;5026159;28;20034;-84
2023/07/31 11:20:49;;;;;;;2.50;1.50;;;;;;;;;;5010728;28;20030;-85
2023/07/31 11:23:15;;;;;;;4.25;1.67;;;;;;;;;;5010570;28;20064;-85
2023/07/31 11:25:41;;;;;;;3.92;1.85;;;;;;;;;;5009334;28;20456;-85
2023/07/31 11:28:08;;;;;;;2.90;1.73;;;;;;;;;;5010630;28;20030;-84
2023/07/31 11:30:34;;;;;;;4.90;1.80;;;;;;;;;;5009561;28;20018;-85
2023/07/31 11:33:00;;;;;;;3.25;1.70;;;;;;;;;;5010530;28;20030;-84
2023/07/31 11:35:26;;;;;;;2.58;1.80;;;;;;;;;;5009281;28;20073;-85
2023/07/31 11:37:51;;;;;;;2.67;1.70;;;;;;;;;;5024716;28;20073;-84
2023/07/31 11:40:17;;;;;;;4.50;1.60;;;;;;;;;;5010677;28;20115;-84
2023/07/31 11:42:43;;;;;;;2.95;1.60;;;;;;;;;;4989933;28;20038;-83
2023/07/31 11:45:11;;;;;;;2.83;1.70;;;;;;;;;;5004694;28;20026;-84
2023/07/31 11:47:37;;;;;;;2.97;1.75;;;;;;;;;;5009404;28;20040;-85
2023/07/31 11:50:06;;;;;;;2.42;1.60;;;;;;;;;;5010438;28;20021;-84
2023/07/31 11:52:35;;;;;;;3.17;1.60;;;;;;;;;;5009131;28;20366;-84
2023/07/31 11:55:00;;;;;;;2.50;1.70;;;;;;;;;;5008711;28;20018;-84
2023/07/31 11:57:26;;;;;;;3.20;1.77;;;;;;;;;;5009722;28;20064;-85
2023/07/31 11:59:51;;;;;;;3.67;1.60;;;;;;;;;;5009360;28;20057;-84
2023/07/31 12:02:17;;;;;;;3.75;1.73;;;;;;;;;;5025575;28;20538;-83
2023/07/31 12:04:42;;;;;;;3.25;1.63;;;;;;;;;;5020053;28;20026;-84
2023/07/31 12:07:08;;;;;;;5.20;2.00;;;;;;;;;;5025869;28;20124;-84
2023/07/31 12:09:35;;;;;;;3.88;1.67;;;;;;;;;;5025692;28;20030;-85
2023/07/31 12:12:03;;;;;;;2.42;1.63;;;;;;;;;;5025083;28;20050;-83
2023/07/31 12:14:31;;;;;;;3.72;1.90;;;;;;;;;;5010884;28;20480;-85
2023/07/31 12:16:57;;;;;;;4.15;1.92;;;;;;;;;;5009983;28;20034;-85
2023/07/31 12:19:23;;;;;;;5.15;1.85;;;;;;;;;;5010425;28;20021;-85
2023/07/31 12:21:49;;;;;;;2.30;1.40;;;;;;;;;;5010470;28;20149;-85
2023/07/31 12:24:14;;;;;;;3.63;1.63;;;;;;;;;;5008659;28;20038;-84
2023/07/31 12:26:40;;;;;;;2.75;1.95;;;;;;;;;;5011573;28;20116;-83
2023/07/31 12:29:06;;;;;;;2.53;1.70;;;;;;;;;;5012465;28;20028;-85
2023/07/31 12:31:33;;;;;;;2.30;1.67;;;;;;;;;;5004352;28;20034;-84
2023/07/31 12:33:58;;;;;;;2.78;1.77;;;;;;;;;;5013919;28;20029;-84
2023/07/31 12:36:24;;;;;;;2.67;1.60;;;;;;;;;;5028950;28;20558;-84
2023/07/31 12:38:49;;;;;;;2.85;1.65;;;;;;;;;;4994741;28;20060;-84
2023/07/31 12:41:15;;;;;;;2.78;1.50;;;;;;;;;;5013494;28;20034;-84
2023/07/31 12:43:41;;;;;;;2.70;1.67;;;;;;;;;;5012835;28;20037;-84
2023/07/31 12:46:10;;;;;;;2.67;1.60;;;;;;;;;;5012711;28;20030;-84
2023/07/31 12:48:35;;;;;;;3.03;1.90;;;;;;;;;;5012386;28;20029;-84
2023/07/31 12:51:01;;;;;;;3.25;1.70;;;;;;;;;;5012256;28;20034;-83
2023/07/31 12:53:27;;;;;;;3.85;2.03;;;;;;;;;;5013280;28;20022;-84
2023/07/31 12:55:52;;;;;;;3.85;1.80;;;;;;;;;;5012183;28;20493;-84
2023/07/31 12:58:18;;;;;;;4.63;2.00;;;;;;;;;;5012181;28;20022;-85
2023/07/31 13:00:44;;;;;;;6.60;1.83;;;;;;;;;;5029110;28;20036;-85
2023/07/31 13:03:09;;;;;;;3.58;1.92;;;;;;;;;;5013079;28;20053;-84
2023/07/31 13:05:34;;;;;;;3.35;2.20;;;;;;;;;;5028788;28;20076;-84
2023/07/31 13:08:00;;;;;;;3.08;1.90;;;;;;;;;;5012824;28;20076;-84
2023/07/31 13:10:26;;;;;;;3.67;1.95;;;;;;;;;;5013079;28;20555;-84
2023/07/31 13:12:52;;;;;;;6.00;1.90;;;;;;;;;;5012598;28;20080;-85
2023/07/31 13:15:17;;;;;;;4.63;1.92;;;;;;;;;;5012977;28;20503;-85
2023/07/31 13:17:43;;;;;;;4.38;1.67;;;;;;;;;;5012407;28;20108;-84
2023/07/31 13:20:09;;;;;;;8.20;2.03;;;;;;;;;;5012798;28;20050;-84
2023/07/31 13:22:34;;;;;;;4.97;1.95;;;;;;;;;;5012564;28;20180;-85
2023/07/31 13:25:00;;;;;;;2.83;1.55;;;;;;;;;;5026952;28;20034;-84
2023/07/31 13:27:25;;;;;;;3.00;1.70;;;;;;;;;;5012756;28;20072;-85
2023/07/31 13:29:51;;;;;;;3.08;1.65;;;;;;;;;;5012872;28;20386;-85
2023/07/31 13:32:21;;;;;;;3.05;1.70;;;;;;;;;;5011753;28;20771;-84
2023/07/31 13:34:46;;;;;;;4.03;1.95;;;;;;;;;;5027414;28;20038;-83
2023/07/31 13:37:12;;;;;;;3.45;1.75;;;;;;;;;;5011051;28;20038;-84
2023/07/31 13:39:38;;;;;;;3.60;1.90;;;;;;;;;;5012515;28;20501;-85
2023/07/31 13:42:06;;;;;;;3.80;2.15;;;;;;;;;;5012336;28;20026;-85
2023/07/31 13:44:32;;;;;;;2.95;1.80;;;;;;;;;;5017455;28;20133;-85
2023/07/31 13:46:57;;;;;;;3.03;1.90;;;;;;;;;;5008150;28;20116;-84
2023/07/31 13:49:22;;;;;;;3.42;1.55;;;;;;;;;;5011601;28;20038;-85
2023/07/31 13:51:48;;;;;;;2.67;1.63;;;;;;;;;;5027129;28;20022;-84
2023/07/31 13:54:15;;;;;;;2.33;1.33;;;;;;;;;;5011195;28;20045;-84
2023/07/31 13:56:44;;;;;;;3.55;1.90;;;;;;;;;;5026411;28;20025;-85
2023/07/31 13:59:10;;;;;;;3.60;2.00;;;;;;;;;;5027731;28;20555;-84
2023/07/31 14:01:35;;;;;;;2.67;1.60;;;;;;;;;;5026409;28;20436;-85
2023/07/31 14:04:00;;;;;;;2.58;1.90;;;;;;;;;;5011300;28;21994;-85
2023/07/31 14:06:26;;;;;;;3.63;1.88;;;;;;;;;;5010625;28;20025;-84
2023/07/31 14:08:51;;;;;;;5.75;1.80;;;;;;;;;;5012291;28;20041;-83
2023/07/31 14:11:17;;;;;;;2.40;1.80;;;;;;;;;;5010204;28;20032;-83
2023/07/31 14:13:45;;;;;;;4.13;1.60;;;;;;;;;;5011988;28;20077;-83
2023/07/31 14:16:11;;;;;;;2.85;1.80;;;;;;;;;;5011410;28;20044;-85
2023/07/31 14:18:36;;;;;;;4.50;1.98;;;;;;;;;;5010452;28;20034;-84
2023/07/31 14:21:02;;;;;;;4.40;1.80;;;;;;;;;;5011342;28;20037;-83
2023/07/31 14:23:27;;;;;;;3.17;1.83;;;;;;;;;;5010677;28;20038;-83
2023/07/31 14:25:53;;;;;;;3.97;1.90;;;;;;;;;;5009961;28;20057;-84
2023/07/31 14:28:18;;;;;;;4.18;2.05;;;;;;;;;;5011782;28;20493;-84
2023/07/31 14:30:44;;;;;;;3.22;1.50;;;;;;;;;;5010961;28;20030;-84
2023/07/31 14:33:09;;;;;;;4.72;2.00;;;;;;;;;;5010582;28;20053;-85
2023/07/31 14:35:35;;;;;;;4.32;1.73;;;;;;;;;;4993732;28;20457;-84
2023/07/31 14:38:01;;;;;;;3.30;2.00;;;;;;;;;;5010671;28;20045;-82